Time;durP1;ratioP1;P1;durP2;ratioP2;P2;SDS_P1;SDS_P2;PMS_P1;PMS_P2;Temp;Humidity;BMP_temperature;BMP_pressure;BME280_temperature;BME280_humidity;BME280_pressure;Samples;Min_cycle;Max_cycle;Signal;HPM_P1;HPM_P2
2021/12/16 00:09:21;;;;;;;10.77;8.00;;;6.10;84.30;;;;;;5057291;28;19920;-68
2021/12/16 00:35:58;;;;;;;14.70;10.35;;;5.90;84.40;;;;;;5054140;28;20028;-67
2021/12/16 00:38:24;;;;;;;15.63;10.02;;;5.90;84.40;;;;;;5053815;28;20033;-66
2021/12/16 00:40:50;;;;;;;14.80;10.63;;;5.80;84.20;;;;;;5054384;28;20033;-68
2021/12/16 00:56:01;;;;;;;18.63;12.18;;;5.80;84.80;;;;;;5052150;28;20139;-68
2021/12/16 00:58:38;;;;;;;19.45;12.68;;;5.90;84.70;;;;;;5055998;28;21943;-67
2021/12/16 01:49:49;;;;;;;23.23;14.38;;;5.70;84.90;;;;;;5059243;28;20055;-67
2021/12/16 01:53:10;;;;;;;22.38;13.60;;;5.70;85.00;;;;;;5056225;28;20094;-68
2021/12/16 01:55:19;;;;;;;21.42;12.77;;;5.70;85.00;;;;;;5056417;28;20049;-67
2021/12/16 01:57:50;;;;;;;24.48;14.70;;;5.70;84.90;;;;;;5056373;28;20026;-67
2021/12/16 02:00:27;;;;;;;20.60;12.80;;;5.80;84.70;;;;;;5056951;28;20035;-67
2021/12/16 02:03:00;;;;;;;22.40;13.88;;;5.70;84.70;;;;;;5061518;28;20102;-67
2021/12/16 02:06:01;;;;;;;23.23;13.82;;;5.80;84.70;;;;;;5058255;28;20139;-68
2021/12/16 02:08:32;;;;;;;24.75;14.50;;;5.70;84.60;;;;;;5058743;28;20596;-67
2021/12/16 02:11:26;;;;;;;21.92;13.20;;;5.70;84.40;;;;;;5056298;28;20033;-66
2021/12/16 02:27:50;;;;;;;24.50;13.93;;;5.50;85.10;;;;;;5055148;28;20040;-67
2021/12/16 02:35:40;;;;;;;24.42;13.98;;;5.60;85.20;;;;;;5057016;28;20507;-67
2021/12/16 02:38:06;;;;;;;25.33;14.63;;;5.60;85.10;;;;;;5057317;28;20105;-67
2021/12/16 02:40:35;;;;;;;21.67;13.10;;;5.60;85.10;;;;;;5057285;28;20028;-67
2021/12/16 02:43:20;;;;;;;24.27;14.43;;;5.60;85.20;;;;;;5056246;28;20051;-67
2021/12/16 02:48:29;;;;;;;22.80;13.43;;;5.70;85.20;;;;;;5057874;28;20098;-68
2021/12/16 02:48:35;;;;;;;20.17;11.45;;;5.70;85.30;;;;;;5055860;28;20033;-67
2021/12/16 02:51:12;;;;;;;16.65;10.93;;;5.70;85.10;;;;;;5056390;28;20496;-68
2021/12/16 02:53:51;;;;;;;18.17;11.27;;;5.70;85.00;;;;;;5053221;28;20068;-67
2021/12/16 02:56:17;;;;;;;19.80;12.07;;;5.70;85.30;;;;;;5054860;28;20084;-68
2021/12/16 02:58:49;;;;;;;20.60;12.65;;;5.70;84.90;;;;;;5052997;28;20097;-68
2021/12/16 03:01:50;;;;;;;22.65;13.52;;;5.70;84.90;;;;;;5057283;28;20068;-67
2021/12/16 03:04:20;;;;;;;19.33;11.90;;;5.70;85.00;;;;;;5014950;28;20087;-68
2021/12/16 03:06:49;;;;;;;23.15;13.82;;;5.80;85.10;;;;;;5053432;28;20033;-67
2021/12/16 03:09:18;;;;;;;21.45;12.77;;;5.80;85.10;;;;;;5054731;28;20101;-68
2021/12/16 03:14:29;;;;;;;23.45;13.82;;;5.80;84.80;;;;;;5057743;28;20105;-68
2021/12/16 03:17:11;;;;;;;22.67;13.85;;;5.80;84.50;;;;;;5057240;28;20041;-68
2021/12/16 03:22:05;;;;;;;25.65;15.20;;;5.80;84.50;;;;;;5054896;28;20036;-68
2021/12/16 03:29:54;;;;;;;24.52;13.75;;;5.60;84.50;;;;;;5056379;28;20033;-68
2021/12/16 03:32:53;;;;;;;19.88;12.32;;;5.50;84.70;;;;;;5055992;28;20028;-68
2021/12/16 03:37:51;;;;;;;22.98;13.43;;;5.40;85.30;;;;;;5055142;28;20036;-68
2021/12/16 03:40:18;;;;;;;23.33;13.73;;;5.40;85.40;;;;;;5054576;28;20040;-67
2021/12/16 03:42:51;;;;;;;22.63;13.80;;;5.40;85.40;;;;;;5055320;28;20021;-68
2021/12/16 03:48:33;;;;;;;24.38;13.95;;;5.50;85.70;;;;;;5054246;28;20507;-67
2021/12/16 03:51:00;;;;;;;24.15;14.07;;;5.50;85.60;;;;;;5054768;28;20438;-67
2021/12/16 03:53:27;;;;;;;25.05;14.02;;;5.50;85.40;;;;;;5057178;28;20111;-67
2021/12/16 03:55:53;;;;;;;25.38;14.95;;;5.50;85.40;;;;;;5057585;28;20033;-67
2021/12/16 03:58:19;;;;;;;26.73;14.93;;;5.50;85.40;;;;;;5055499;28;20036;-68
2021/12/16 04:00:54;;;;;;;24.20;14.63;;;5.50;85.40;;;;;;5050801;28;20040;-68
2021/12/16 04:03:20;;;;;;;22.40;14.35;;;5.60;85.40;;;;;;5054436;28;20032;-67
2021/12/16 04:05:47;;;;;;;24.92;15.10;;;5.60;85.30;;;;;;5053231;28;20039;-68
2021/12/16 04:08:13;;;;;;;28.25;16.77;;;5.60;85.10;;;;;;5035302;28;20043;-67
2021/12/16 04:10:45;;;;;;;23.50;14.60;;;5.50;85.10;;;;;;5051635;28;20029;-68
2021/12/16 04:13:14;;;;;;;26.73;15.52;;;5.50;85.10;;;;;;5052681;28;20033;-67
2021/12/16 04:15:40;;;;;;;24.15;14.27;;;5.50;85.30;;;;;;5052888;28;20124;-67
2021/12/16 04:18:06;;;;;;;22.63;12.50;;;5.50;85.20;;;;;;5053498;28;20562;-67
2021/12/16 04:20:34;;;;;;;23.30;13.27;;;5.50;85.10;;;;;;5053515;28;20032;-67
2021/12/16 04:23:00;;;;;;;23.92;13.63;;;5.50;85.20;;;;;;5056944;28;20040;-67
2021/12/16 04:25:35;;;;;;;23.58;13.82;;;5.50;85.20;;;;;;5055512;28;20420;-67
2021/12/16 04:28:05;;;;;;;25.67;14.45;;;5.50;85.30;;;;;;5052297;28;20035;-67
2021/12/16 04:30:32;;;;;;;26.60;14.68;;;5.50;85.30;;;;;;5052712;28;20073;-68
2021/12/16 04:32:58;;;;;;;27.23;15.13;;;5.50;85.20;;;;;;5053139;28;20563;-67
2021/12/16 04:35:24;;;;;;;24.73;13.93;;;5.50;85.80;;;;;;5056126;28;20631;-67
2021/12/16 04:37:50;;;;;;;22.80;13.15;;;5.40;84.90;;;;;;5051326;28;20024;-67
2021/12/16 04:40:17;;;;;;;24.48;14.20;;;5.40;85.00;;;;;;5052389;28;20754;-68
2021/12/16 04:42:46;;;;;;;24.77;13.98;;;5.30;85.00;;;;;;5054086;28;20036;-68
2021/12/16 04:45:17;;;;;;;23.77;13.02;;;5.30;85.10;;;;;;5053412;28;20125;-67
2021/12/16 04:47:43;;;;;;;22.20;12.40;;;5.30;85.30;;;;;;5051398;28;20021;-67
2021/12/16 04:50:10;;;;;;;18.33;10.93;;;5.30;85.40;;;;;;5053875;28;20048;-67
2021/12/16 04:52:36;;;;;;;22.50;12.02;;;5.30;85.30;;;;;;5051766;28;20029;-67
2021/12/16 04:55:05;;;;;;;18.67;10.50;;;5.30;85.20;;;;;;5052339;28;20033;-67
2021/12/16 04:57:31;;;;;;;17.83;11.00;;;5.20;85.30;;;;;;5051558;28;20043;-67
2021/12/16 04:59:57;;;;;;;19.77;10.93;;;5.20;85.30;;;;;;5051594;28;20041;-68
2021/12/16 05:02:25;;;;;;;17.25;10.13;;;5.30;85.50;;;;;;5050977;28;20638;-67
2021/12/16 05:04:51;;;;;;;19.48;11.68;;;5.30;85.40;;;;;;5053413;28;20048;-67
2021/12/16 05:07:18;;;;;;;17.98;11.23;;;5.30;85.30;;;;;;5051584;28;20174;-67
2021/12/16 05:12:19;;;;;;;18.58;11.25;;;5.30;85.40;;;;;;5051320;28;20037;-67
2021/12/16 05:14:47;;;;;;;17.42;10.98;;;5.30;85.60;;;;;;5055070;28;20036;-67
2021/12/16 05:17:30;;;;;;;21.33;12.38;;;5.40;85.60;;;;;;5054858;28;20044;-68
2021/12/16 05:19:59;;;;;;;20.58;12.77;;;5.40;85.50;;;;;;5053806;28;20040;-68
2021/12/16 05:25:18;;;;;;;21.23;11.90;;;5.40;85.10;;;;;;5053860;28;20031;-68
2021/12/16 05:27:44;;;;;;;22.63;12.70;;;5.40;85.20;;;;;;5051681;28;20033;-68
2021/12/16 05:30:11;;;;;;;22.10;12.50;;;5.50;85.30;;;;;;5051819;28;20036;-68
2021/12/16 05:32:36;;;;;;;19.58;11.38;;;5.40;85.10;;;;;;5053083;28;20037;-69
2021/12/16 05:35:03;;;;;;;18.48;11.00;;;5.50;85.20;;;;;;5055183;28;20037;-68
2021/12/16 05:37:28;;;;;;;20.00;11.15;;;5.50;85.20;;;;;;5052544;28;20122;-67
2021/12/16 05:39:54;;;;;;;19.00;10.70;;;5.50;85.10;;;;;;5053794;28;20114;-68
2021/12/16 05:42:19;;;;;;;18.33;10.00;;;5.50;84.90;;;;;;5036870;28;20068;-68
2021/12/16 05:44:45;;;;;;;16.98;10.00;;;5.50;84.90;;;;;;5054191;28;20037;-68
2021/12/16 05:47:11;;;;;;;17.42;9.88;;;5.40;84.90;;;;;;5054272;28;20037;-68
2021/12/16 05:49:37;;;;;;;16.00;9.10;;;5.40;85.10;;;;;;5054650;28;20476;-68
2021/12/16 05:52:03;;;;;;;16.92;9.90;;;5.40;85.10;;;;;;5055469;28;20598;-68
2021/12/16 05:54:28;;;;;;;17.70;9.38;;;5.40;85.10;;;;;;5055242;28;20037;-69
2021/12/16 05:56:54;;;;;;;17.83;9.30;;;5.40;86.00;;;;;;5053253;28;20056;-68
2021/12/16 05:59:20;;;;;;;17.90;9.50;;;5.40;85.30;;;;;;5053653;28;20404;-68
2021/12/16 06:01:47;;;;;;;15.88;9.25;;;5.40;85.30;;;;;;5052576;28;20129;-68
2021/12/16 06:04:14;;;;;;;15.07;8.45;;;5.40;85.40;;;;;;5054804;28;20034;-68
2021/12/16 06:06:39;;;;;;;15.85;9.05;;;5.40;85.30;;;;;;5037834;28;20028;-68
2021/12/16 06:09:07;;;;;;;18.50;9.60;;;5.40;85.30;;;;;;5056596;28;20098;-68
2021/12/16 06:11:34;;;;;;;16.15;9.18;;;5.40;85.20;;;;;;5056052;28;20412;-69
2021/12/16 06:27:41;;;;;;;14.88;8.57;;;5.30;84.80;;;;;;5057479;28;20064;-68
2021/12/16 06:30:09;;;;;;;18.83;10.02;;;5.20;84.80;;;;;;5059143;28;20463;-68
2021/12/16 06:32:36;;;;;;;18.20;9.90;;;5.20;84.90;;;;;;5056371;28;20028;-69
2021/12/16 06:35:03;;;;;;;22.23;11.00;;;5.20;85.00;;;;;;5058826;28;20041;-68
2021/12/16 06:37:28;;;;;;;21.02;10.75;;;5.10;85.10;;;;;;5055660;28;20040;-69
2021/12/16 06:39:54;;;;;;;25.15;11.80;;;5.10;85.30;;;;;;5058239;28;20449;-68
2021/12/16 06:42:21;;;;;;;24.67;11.52;;;5.00;85.40;;;;;;5055933;28;20032;-69
2021/12/16 06:44:53;;;;;;;25.27;11.85;;;5.00;85.40;;;;;;5058890;28;20044;-67
2021/12/16 06:47:25;;;;;;;25.30;10.98;;;5.00;85.60;;;;;;5057375;28;20049;-66
2021/12/16 06:49:53;;;;;;;29.02;11.98;;;5.00;85.80;;;;;;5056672;28;20036;-68
2021/12/16 06:52:24;;;;;;;31.42;12.75;;;4.90;85.80;;;;;;5054364;28;20492;-69
2021/12/16 06:59:55;;;;;;;28.98;12.55;;;4.80;86.10;;;;;;5059488;28;20316;-67
2021/12/16 07:02:42;;;;;;;37.45;15.75;;;4.80;86.20;;;;;;5057401;28;20399;-68
2021/12/16 07:05:10;;;;;;;30.42;12.43;;;4.90;86.40;;;;;;5057309;28;20496;-69
2021/12/16 07:07:36;;;;;;;31.23;14.20;;;4.90;86.50;;;;;;5055593;28;20147;-67
2021/12/16 07:10:04;;;;;;;40.10;16.02;;;4.90;86.50;;;;;;5056843;28;20113;-68
2021/12/16 07:12:36;;;;;;;29.10;12.73;;;4.90;86.50;;;;;;5055295;28;20033;-68
2021/12/16 07:15:10;;;;;;;29.08;13.07;;;4.90;86.60;;;;;;5040604;28;20029;-68
2021/12/16 07:17:37;;;;;;;26.67;11.90;;;4.90;86.50;;;;;;5057709;28;20090;-68
2021/12/16 07:20:06;;;;;;;26.27;11.55;;;4.90;86.50;;;;;;5058199;28;20033;-68
2021/12/16 07:22:33;;;;;;;24.55;10.73;;;4.90;86.50;;;;;;5056507;28;20037;-68
2021/12/16 07:25:00;;;;;;;28.45;11.57;;;4.90;86.50;;;;;;5056675;28;20040;-68
2021/12/16 07:27:26;;;;;;;27.40;11.25;;;4.90;86.50;;;;;;5057864;28;20072;-68
2021/12/16 07:29:52;;;;;;;25.95;11.35;;;4.90;86.60;;;;;;5058673;28;20025;-68
2021/12/16 07:32:17;;;;;;;26.25;11.25;;;4.90;86.60;;;;;;5056889;28;20081;-68
2021/12/16 07:34:43;;;;;;;29.25;11.98;;;5.00;86.90;;;;;;5056531;28;20036;-68
2021/12/16 07:37:09;;;;;;;25.35;12.13;;;5.00;86.90;;;;;;5056862;28;20482;-68
2021/12/16 07:39:40;;;;;;;27.60;11.55;;;5.00;86.80;;;;;;5056532;28;20584;-68
2021/12/16 07:42:08;;;;;;;27.10;11.73;;;5.00;86.60;;;;;;5057015;28;20037;-68
2021/12/16 07:44:34;;;;;;;26.67;11.63;;;5.00;86.50;;;;;;5038520;28;20887;-68
2021/12/16 07:47:04;;;;;;;22.02;10.38;;;5.10;86.60;;;;;;5059017;28;20033;-68
2021/12/16 07:49:36;;;;;;;22.05;10.05;;;5.10;86.60;;;;;;5058230;28;20035;-68
2021/12/16 07:52:04;;;;;;;23.13;10.32;;;5.10;86.70;;;;;;5056658;28;20029;-69
2021/12/16 07:54:31;;;;;;;20.52;9.95;;;5.20;86.80;;;;;;5055416;28;20511;-67
2021/12/16 07:56:58;;;;;;;23.10;9.88;;;5.20;86.60;;;;;;5055637;28;20045;-69
2021/12/16 07:59:26;;;;;;;21.27;9.75;;;5.20;86.60;;;;;;5056626;28;20118;-68
2021/12/16 08:01:53;;;;;;;22.40;11.50;;;5.30;86.60;;;;;;5040293;28;20070;-69
2021/12/16 08:04:22;;;;;;;20.65;10.07;;;5.30;86.60;;;;;;5055530;28;20471;-68
2021/12/16 08:06:50;;;;;;;21.15;10.27;;;5.30;86.50;;;;;;5054180;28;20036;-68
2021/12/16 08:09:17;;;;;;;23.30;10.82;;;5.40;86.50;;;;;;5054918;28;20028;-69
2021/12/16 08:11:45;;;;;;;22.20;10.38;;;5.40;86.30;;;;;;5056071;28;20032;-68
2021/12/16 08:14:11;;;;;;;21.63;10.10;;;5.50;86.30;;;;;;5055545;28;20032;-68
2021/12/16 08:16:38;;;;;;;23.33;11.55;;;5.50;86.10;;;;;;5056152;28;20049;-68
2021/12/16 08:19:05;;;;;;;21.48;10.93;;;5.50;86.00;;;;;;5057658;28;20029;-69
2021/12/16 08:21:32;;;;;;;18.52;10.30;;;5.50;85.80;;;;;;5054165;28;20043;-68
2021/12/16 08:23:59;;;;;;;21.80;10.48;;;5.50;85.80;;;;;;5059043;28;20029;-69
2021/12/16 08:26:27;;;;;;;21.00;9.77;;;5.50;85.80;;;;;;5054773;28;20112;-67
2021/12/16 08:28:53;;;;;;;20.05;9.77;;;5.50;85.90;;;;;;5055048;28;20497;-68
2021/12/16 08:31:19;;;;;;;23.60;10.43;;;5.50;85.80;;;;;;5054994;28;20419;-69
2021/12/16 08:33:45;;;;;;;18.60;9.48;;;5.50;85.60;;;;;;5057754;28;20423;-68
2021/12/16 08:36:11;;;;;;;20.83;10.07;;;5.50;85.60;;;;;;5057107;28;20511;-69
2021/12/16 08:38:38;;;;;;;22.05;9.88;;;5.50;85.80;;;;;;5053629;28;20075;-68
2021/12/16 08:41:09;;;;;;;19.27;9.75;;;5.50;85.80;;;;;;5056588;28;20064;-68
2021/12/16 08:43:44;;;;;;;18.33;8.73;;;5.60;85.80;;;;;;5040433;28;20091;-68
2021/12/16 08:46:12;;;;;;;19.77;9.48;;;5.60;86.00;;;;;;5055431;28;20458;-68
2021/12/16 08:48:42;;;;;;;18.88;9.10;;;5.60;86.00;;;;;;5055865;28;20021;-68
2021/12/16 08:51:09;;;;;;;18.98;9.40;;;5.60;86.00;;;;;;5055792;28;20025;-68
2021/12/16 08:53:35;;;;;;;22.13;10.70;;;5.70;86.00;;;;;;5054428;28;20033;-68
2021/12/16 08:56:04;;;;;;;21.00;10.25;;;5.70;85.90;;;;;;5054592;28;20048;-68
2021/12/16 08:58:30;;;;;;;21.02;11.38;;;5.70;85.60;;;;;;5056522;28;20028;-68
2021/12/16 09:01:04;;;;;;;23.85;11.93;;;5.70;85.60;;;;;;5054416;28;20028;-68
2021/12/16 09:03:30;;;;;;;24.10;11.40;;;5.70;85.60;;;;;;5036617;28;20037;-68
2021/12/16 09:05:56;;;;;;;29.73;12.93;;;5.80;85.60;;;;;;5058773;28;20060;-68
2021/12/16 09:08:22;;;;;;;28.38;11.80;;;5.80;85.40;;;;;;5055169;28;20614;-68
2021/12/16 09:10:48;;;;;;;26.85;11.15;;;5.70;85.30;;;;;;5054244;28;20131;-68
2021/12/16 09:13:17;;;;;;;30.83;12.30;;;5.70;85.30;;;;;;5056080;28;20133;-68
2021/12/16 09:15:54;;;;;;;28.58;12.75;;;5.70;85.30;;;;;;5057946;28;20024;-68
2021/12/16 09:18:27;;;;;;;24.85;11.25;;;5.70;85.50;;;;;;5056139;28;20619;-68
2021/12/16 09:20:56;;;;;;;26.67;11.55;;;5.70;85.70;;;;;;5055041;28;20051;-68
2021/12/16 09:23:22;;;;;;;22.13;10.48;;;5.70;85.70;;;;;;5055651;28;20053;-67
2021/12/16 09:25:49;;;;;;;28.20;12.00;;;5.70;85.80;;;;;;5058269;28;20056;-68
2021/12/16 09:28:17;;;;;;;26.25;11.82;;;5.70;85.70;;;;;;5056419;28;20115;-68
2021/12/16 09:30:43;;;;;;;24.83;11.77;;;5.70;85.50;;;;;;5055972;28;20051;-68
2021/12/16 09:33:14;;;;;;;27.30;11.85;;;5.70;85.50;;;;;;5056437;28;20551;-68
2021/12/16 09:35:42;;;;;;;29.55;12.98;;;5.70;86.60;;;;;;5057732;28;20020;-68
2021/12/16 09:38:10;;;;;;;27.52;11.93;;;5.60;85.80;;;;;;5054639;28;20124;-68
2021/12/16 09:40:44;;;;;;;29.17;14.18;;;5.70;86.70;;;;;;5055971;28;20025;-68
2021/12/16 09:43:10;;;;;;;23.27;11.38;;;5.70;85.80;;;;;;5058166;28;20464;-68
2021/12/16 09:45:36;;;;;;;24.23;10.63;;;5.70;85.80;;;;;;5056114;28;20056;-68
2021/12/16 09:48:01;;;;;;;21.40;10.75;;;5.70;85.90;;;;;;5052652;28;20086;-67
2021/12/16 09:50:30;;;;;;;21.15;10.45;;;5.70;85.80;;;;;;5057730;28;20043;-68
2021/12/16 09:52:57;;;;;;;20.77;10.05;;;5.70;85.80;;;;;;5054375;28;20041;-68
2021/12/16 09:55:22;;;;;;;22.25;9.80;;;5.70;85.90;;;;;;5058116;28;20119;-68
2021/12/16 09:57:49;;;;;;;25.73;11.35;;;5.80;86.00;;;;;;5054164;28;20477;-68
2021/12/16 10:00:22;;;;;;;35.95;14.50;;;5.70;86.00;;;;;;5058049;28;20335;-68
2021/12/16 10:02:49;;;;;;;33.38;14.10;;;5.80;86.00;;;;;;5057948;28;20036;-68
2021/12/16 10:05:14;;;;;;;29.65;13.00;;;5.80;86.00;;;;;;5061630;28;20071;-68
2021/12/16 10:07:40;;;;;;;29.75;12.18;;;5.90;86.60;;;;;;5058674;28;20120;-68
2021/12/16 10:10:11;;;;;;;23.77;11.23;;;5.90;85.60;;;;;;5058965;28;20037;-68
2021/12/16 10:12:41;;;;;;;24.60;11.80;;;5.90;85.40;;;;;;5057151;28;20079;-69
2021/12/16 10:17:56;;;;;;;20.77;9.70;;;6.00;86.30;;;;;;5057681;28;20113;-68
2021/12/16 10:20:33;;;;;;;18.73;9.90;;;6.00;85.40;;;;;;5060003;28;20067;-68
2021/12/16 10:23:09;;;;;;;23.05;10.93;;;6.00;85.30;;;;;;5058179;28;20143;-68
2021/12/16 10:25:40;;;;;;;21.98;10.63;;;6.10;85.30;;;;;;5058518;28;20037;-68
2021/12/16 10:28:12;;;;;;;19.08;10.10;;;6.10;85.30;;;;;;5057899;28;20443;-68
2021/12/16 10:31:04;;;;;;;20.40;9.65;;;6.10;84.90;;;;;;5060470;28;20036;-68
2021/12/16 10:33:37;;;;;;;23.92;11.40;;;6.10;84.90;;;;;;5056232;28;20373;-68
2021/12/16 10:36:09;;;;;;;27.00;12.98;;;6.10;85.80;;;;;;5061969;28;20032;-67
2021/12/16 10:39:14;;;;;;;25.92;13.18;;;6.10;84.70;;;;;;5057576;28;20123;-66
2021/12/16 10:41:42;;;;;;;22.15;11.43;;;6.00;84.40;;;;;;5057797;28;20091;-68
2021/12/16 10:44:21;;;;;;;25.20;12.05;;;6.00;84.40;;;;;;5059821;28;20036;-67
2021/12/16 10:47:10;;;;;;;24.60;11.65;;;5.90;84.70;;;;;;5059590;28;20058;-68
2021/12/16 10:49:45;;;;;;;21.50;11.30;;;5.90;84.90;;;;;;5060174;28;20028;-68
2021/12/16 10:52:14;;;;;;;24.67;12.02;;;5.80;85.00;;;;;;5060178;28;20045;-68
2021/12/16 10:54:46;;;;;;;22.20;11.15;;;5.80;85.10;;;;;;5047332;28;20075;-68
2021/12/16 10:57:15;;;;;;;21.33;10.38;;;5.80;85.10;;;;;;5058184;28;20043;-68
2021/12/16 10:59:45;;;;;;;25.58;11.40;;;5.70;85.20;;;;;;5059245;28;20075;-68
2021/12/16 11:02:17;;;;;;;21.30;10.93;;;5.70;85.40;;;;;;5057876;28;20124;-69
2021/12/16 11:04:52;;;;;;;25.95;11.40;;;5.70;85.40;;;;;;5059380;28;20035;-67
2021/12/16 11:07:21;;;;;;;20.98;10.73;;;5.70;85.40;;;;;;5059516;28;20029;-68
2021/12/16 11:09:58;;;;;;;20.88;10.43;;;5.70;85.50;;;;;;5055764;28;20115;-68
2021/12/16 11:12:34;;;;;;;20.70;10.40;;;5.60;85.40;;;;;;5055357;28;20134;-68
2021/12/16 11:15:17;;;;;;;21.45;10.00;;;5.60;85.40;;;;;;5057040;28;20778;-68
2021/12/16 11:17:54;;;;;;;20.92;9.73;;;5.60;85.60;;;;;;5056902;28;20040;-68
2021/12/16 11:20:43;;;;;;;18.52;9.27;;;5.60;85.50;;;;;;5058413;28;20420;-67
2021/12/16 11:23:21;;;;;;;18.70;9.07;;;5.60;85.60;;;;;;5059056;28;20043;-68
2021/12/16 11:26:00;;;;;;;21.52;9.88;;;5.60;85.60;;;;;;5058986;28;20040;-68
2021/12/16 11:28:28;;;;;;;18.98;9.40;;;5.60;85.60;;;;;;5057843;28;20042;-68
2021/12/16 11:31:09;;;;;;;17.92;9.20;;;5.60;85.80;;;;;;5059679;28;20036;-68
2021/12/16 11:33:46;;;;;;;18.63;9.00;;;5.70;85.80;;;;;;5056955;28;20029;-68
2021/12/16 11:36:20;;;;;;;16.17;8.73;;;5.70;85.60;;;;;;5058125;28;20534;-68
2021/12/16 11:38:47;;;;;;;17.65;8.30;;;5.70;85.60;;;;;;5053865;28;20613;-68
2021/12/16 11:41:27;;;;;;;19.13;8.55;;;5.70;85.70;;;;;;5057876;28;20039;-68
2021/12/16 11:43:58;;;;;;;16.40;8.13;;;5.80;86.30;;;;;;5055372;28;20028;-67
2021/12/16 11:46:56;;;;;;;16.67;8.93;;;5.80;85.50;;;;;;5056924;28;20135;-67
2021/12/16 11:49:41;;;;;;;16.15;8.57;;;5.80;85.40;;;;;;5055399;28;20342;-67
2021/12/16 11:52:22;;;;;;;;;;;5.80;85.20;;;;;;5058685;28;20033;-68
2021/12/16 11:54:58;;;;;;;18.00;8.73;;;5.90;85.30;;;;;;5056170;28;19912;-68
2021/12/16 11:57:35;;;;;;;15.00;8.40;;;5.90;85.30;;;;;;5057449;28;20111;-67
2021/12/16 12:00:04;;;;;;;17.67;9.00;;;5.90;85.00;;;;;;5059614;28;20115;-67
2021/12/16 12:02:37;;;;;;;18.52;9.02;;;5.90;84.90;;;;;;5040439;28;20028;-68
2021/12/16 12:05:26;;;;;;;15.90;9.10;;;5.90;85.00;;;;;;5060170;28;20029;-68
2021/12/16 12:07:54;;;;;;;19.58;9.30;;;5.90;85.20;;;;;;5044160;28;20063;-67
2021/12/16 12:10:48;;;;;;;21.70;10.68;;;5.80;85.30;;;;;;5055501;28;20037;-68
2021/12/16 12:13:24;;;;;;;20.88;10.77;;;5.90;85.70;;;;;;5054917;28;20044;-67
2021/12/16 12:15:52;;;;;;;23.13;10.63;;;5.90;85.60;;;;;;5057577;28;20032;-68
2021/12/16 12:18:44;;;;;;;19.27;10.57;;;5.90;85.60;;;;;;5057225;28;20033;-68
2021/12/16 12:21:25;;;;;;;19.83;10.73;;;5.80;85.60;;;;;;5059810;28;20078;-66
2021/12/16 12:24:14;;;;;;;22.48;10.65;;;5.80;85.80;;;;;;5058655;28;20452;-67
2021/12/16 12:27:00;;;;;;;20.45;10.65;;;5.80;85.90;;;;;;5058568;28;20054;-68
2021/12/16 12:29:32;;;;;;;19.88;10.45;;;5.90;85.80;;;;;;5058393;28;20025;-68
2021/12/16 12:32:03;;;;;;;21.95;10.75;;;5.90;85.70;;;;;;5057877;28;20065;-67
2021/12/16 12:34:29;;;;;;;21.65;10.55;;;5.90;85.50;;;;;;5054748;28;20451;-67
2021/12/16 12:36:59;;;;;;;21.08;10.50;;;5.80;86.30;;;;;;5055680;28;20430;-67
2021/12/16 12:39:36;;;;;;;22.15;10.52;;;5.80;85.40;;;;;;5055757;28;20058;-68
2021/12/16 12:42:03;;;;;;;19.65;9.85;;;5.80;85.60;;;;;;5057704;28;20235;-68
2021/12/16 12:44:29;;;;;;;20.38;10.63;;;5.80;85.80;;;;;;5055402;28;20373;-66
2021/12/16 12:46:59;;;;;;;21.63;10.90;;;5.80;85.80;;;;;;5055576;28;20040;-68
2021/12/16 12:49:27;;;;;;;20.30;11.00;;;5.90;86.00;;;;;;5057085;28;20025;-65
2021/12/16 12:52:08;;;;;;;20.15;10.00;;;5.80;85.90;;;;;;5055142;28;20032;-68
2021/12/16 12:54:34;;;;;;;21.48;10.23;;;5.90;86.80;;;;;;5056388;28;20032;-68
2021/12/16 12:57:19;;;;;;;20.73;11.13;;;5.90;86.00;;;;;;5055369;28;20487;-68
2021/12/16 12:59:45;;;;;;;22.42;11.40;;;5.90;85.70;;;;;;5055169;28;20400;-68
2021/12/16 13:02:32;;;;;;;21.92;10.88;;;5.90;85.50;;;;;;5057666;28;20070;-67
2021/12/16 13:05:10;;;;;;;23.17;11.55;;;5.90;85.40;;;;;;5056088;28;20370;-67
2021/12/16 13:07:43;;;;;;;20.15;11.45;;;5.90;85.30;;;;;;5041499;28;20031;-68
2021/12/16 13:10:18;;;;;;;21.77;11.38;;;5.90;85.40;;;;;;5052450;28;20040;-68
2021/12/16 13:13:15;;;;;;;21.70;11.32;;;6.00;85.50;;;;;;5055303;28;20094;-68
2021/12/16 13:15:52;;;;;;;22.15;10.55;;;5.90;85.50;;;;;;5053957;28;20496;-66
2021/12/16 13:26:44;;;;;;;18.77;10.55;;;6.00;85.30;;;;;;5054273;28;20029;-68
2021/12/16 13:29:31;;;;;;;18.73;9.48;;;6.00;85.60;;;;;;5057192;28;20120;-68
2021/12/16 13:35:05;;;;;;;21.55;10.40;;;6.00;85.30;;;;;;5053754;28;20036;-68
2021/12/16 13:37:45;;;;;;;20.50;10.38;;;6.00;85.10;;;;;;5058480;28;20040;-68
2021/12/16 13:40:36;;;;;;;18.80;9.93;;;6.10;85.40;;;;;;5060388;28;20507;-68
2021/12/16 13:43:11;;;;;;;17.10;9.70;;;6.10;85.30;;;;;;5060162;28;20045;-67
2021/12/16 13:45:57;;;;;;;16.98;9.63;;;6.20;85.30;;;;;;5057888;28;20041;-68
2021/12/16 14:05:44;;;;;;;16.48;9.25;;;6.40;84.30;;;;;;5060710;28;20037;-68
2021/12/16 14:08:25;;;;;;;18.70;9.57;;;6.50;83.70;;;;;;5050397;28;20078;-68
2021/12/16 14:10:59;;;;;;;14.48;9.45;;;6.40;84.00;;;;;;5057760;28;20136;-68
2021/12/16 14:39:28;;;;;;;14.20;9.13;;;6.40;83.90;;;;;;5047267;28;20395;-66
2021/12/16 14:42:14;;;;;;;14.40;9.40;;;6.40;84.00;;;;;;5055905;28;20029;-67
2021/12/16 14:50:23;;;;;;;12.40;8.10;;;6.40;84.00;;;;;;5057157;28;20120;-68
2021/12/16 14:52:49;;;;;;;14.10;8.68;;;6.40;83.90;;;;;;5056594;28;20295;-67
2021/12/16 14:55:18;;;;;;;14.27;8.45;;;6.40;84.00;;;;;;5056532;28;20040;-68
2021/12/16 14:57:48;;;;;;;16.05;8.93;;;6.40;84.00;;;;;;5049448;28;20124;-66
2021/12/16 15:00:31;;;;;;;13.48;8.93;;;6.40;84.90;;;;;;5059490;28;20102;-67
2021/12/16 15:03:10;;;;;;;18.33;10.65;;;6.40;83.90;;;;;;5058350;28;20507;-68
2021/12/16 15:05:43;;;;;;;19.13;11.43;;;6.40;84.00;;;;;;5058503;28;20089;-67
2021/12/16 15:08:24;;;;;;;14.90;9.77;;;6.40;84.00;;;;;;5057354;28;20439;-68
2021/12/16 15:10:50;;;;;;;13.85;8.70;;;6.40;84.00;;;;;;5058360;28;20033;-67
2021/12/16 15:13:41;;;;;;;12.77;8.20;;;6.40;83.90;;;;;;5058098;28;20057;-68
2021/12/16 15:17:23;;;;;;;12.52;7.57;;;6.40;83.70;;;;;;5039358;28;20166;-68
2021/12/16 15:44:14;;;;;;;17.92;10.82;;;6.40;84.00;;;;;;5057713;28;20036;-67
2021/12/16 15:46:40;;;;;;;15.77;10.57;;;6.40;84.00;;;;;;5054789;28;20040;-68
2021/12/16 15:49:07;;;;;;;18.77;11.35;;;6.40;84.00;;;;;;5052998;28;20029;-67
2021/12/16 15:51:34;;;;;;;15.90;10.15;;;6.40;83.90;;;;;;5056524;28;20041;-67
2021/12/16 15:54:00;;;;;;;17.35;10.00;;;6.40;83.90;;;;;;5056254;28;20033;-68
2021/12/16 15:56:30;;;;;;;17.70;10.60;;;6.40;84.60;;;;;;5051785;28;20028;-67
2021/12/16 15:59:00;;;;;;;15.43;9.30;;;6.40;83.80;;;;;;5055842;28;20033;-68
2021/12/16 16:01:38;;;;;;;15.48;9.60;;;6.40;83.80;;;;;;5054314;28;20037;-67
2021/12/16 16:04:11;;;;;;;17.42;10.15;;;6.40;83.70;;;;;;5050756;28;20138;-68
2021/12/16 16:06:46;;;;;;;16.17;10.15;;;6.40;83.70;;;;;;5055404;28;20039;-64
2021/12/16 16:09:12;;;;;;;19.88;11.23;;;6.40;83.70;;;;;;5055656;28;20039;-66
2021/12/16 16:11:44;;;;;;;16.65;9.82;;;6.50;83.80;;;;;;5056736;28;20090;-66
2021/12/16 16:14:11;;;;;;;17.50;9.57;;;6.50;83.70;;;;;;5059553;28;20470;-66
2021/12/16 16:16:44;;;;;;;18.80;11.15;;;6.50;83.80;;;;;;5059555;28;20058;-66
2021/12/16 16:19:14;;;;;;;21.70;11.83;;;6.50;83.70;;;;;;5059251;28;20041;-66
2021/12/16 16:21:46;;;;;;;18.83;10.63;;;6.50;83.70;;;;;;5059776;28;20098;-66
2021/12/16 16:24:18;;;;;;;17.75;10.02;;;6.50;83.70;;;;;;5058997;28;20043;-66
2021/12/16 16:26:46;;;;;;;19.83;11.25;;;6.50;83.70;;;;;;5059499;28;20086;-65
2021/12/16 16:29:16;;;;;;;16.77;10.05;;;6.50;83.70;;;;;;5056959;28;20040;-65
2021/12/16 16:31:42;;;;;;;19.90;11.10;;;6.50;83.70;;;;;;5056839;28;20032;-66
2021/12/16 16:34:20;;;;;;;19.70;11.75;;;6.50;83.70;;;;;;5057265;28;20036;-65
2021/12/16 16:36:49;;;;;;;20.58;11.77;;;6.50;83.50;;;;;;5058666;28;20488;-65
2021/12/16 16:39:18;;;;;;;21.55;11.98;;;6.50;83.50;;;;;;5059403;28;20046;-66
2021/12/16 16:42:01;;;;;;;19.45;11.65;;;6.50;83.50;;;;;;5057285;28;20021;-69
2021/12/16 16:44:28;;;;;;;17.45;10.32;;;6.50;83.30;;;;;;5057918;28;20105;-65
2021/12/16 16:47:10;;;;;;;19.77;10.55;;;6.50;83.40;;;;;;5057953;28;20031;-65
2021/12/16 16:49:47;;;;;;;28.02;16.10;;;6.50;83.30;;;;;;5057033;28;20029;-69
2021/12/16 16:52:15;;;;;;;33.55;18.30;;;6.50;83.30;;;;;;5057734;28;20029;-67
2021/12/16 16:54:53;;;;;;;35.72;20.88;;;6.50;83.30;;;;;;5059012;28;20032;-66
2021/12/16 16:57:28;;;;;;;31.10;17.13;;;6.50;83.30;;;;;;5057287;28;20112;-66
2021/12/16 16:59:58;;;;;;;26.85;14.80;;;6.50;83.90;;;;;;5058715;28;20203;-67
2021/12/16 17:02:31;;;;;;;28.20;14.75;;;6.50;83.10;;;;;;5056120;28;20399;-68
2021/12/16 17:05:05;;;;;;;22.98;12.30;;;6.50;82.80;;;;;;5056666;28;20036;-66